createdAt,value
2019-05-21T00:01:56.885Z,100904.01
2019-05-21T00:04:28.857Z,100908.83
2019-05-21T00:07:00.565Z,100909.22
2019-05-21T00:09:32.265Z,100906.25
2019-05-21T00:12:03.948Z,100907.44
2019-05-21T00:14:35.675Z,100903.23
2019-05-21T00:17:07.328Z,100896.25
2019-05-21T00:19:38.678Z,100903.03
2019-05-21T00:22:10.438Z,100907.03
2019-05-21T00:24:42.127Z,100904.77
2019-05-21T00:27:14.050Z,100901.89
2019-05-21T00:30:21.963Z,100900.69
2019-05-21T00:33:29.866Z,100904.80
2019-05-21T00:36:38.898Z,100906.54
2019-05-21T00:39:46.897Z,100903.79
2019-05-21T00:42:36.476Z,100906.03
2019-05-21T00:45:10.175Z,100906.22
2019-05-21T00:47:41.628Z,100910.73
2019-05-21T00:50:13.661Z,100911.84
2019-05-21T00:52:45.560Z,100904.80
2019-05-21T00:55:17.103Z,100900.56
2019-05-21T00:57:47.668Z,100904.61
2019-05-21T01:00:19.081Z,100900.22
2019-05-21T01:02:50.886Z,100897.23
2019-05-21T01:05:22.395Z,100901.90
2019-05-21T01:07:53.058Z,100896.05
2019-05-21T01:10:24.063Z,100896.27
2019-05-21T01:12:57.263Z,100897.84
2019-05-21T01:15:27.921Z,100900.84
2019-05-21T01:17:59.132Z,100895.34
2019-05-21T01:20:29.898Z,100890.75
2019-05-21T01:23:02.546Z,100892.96
2019-05-21T01:25:33.212Z,100889.67
2019-05-21T01:28:04.417Z,100884.63
2019-05-21T01:30:36.077Z,100881.88
2019-05-21T01:33:07.833Z,100884.72
2019-05-21T01:35:39.491Z,100892.58
2019-05-21T01:38:11.042Z,100887.29
2019-05-21T01:40:42.796Z,100886.66
2019-05-21T01:43:13.668Z,100890.30
2019-05-21T01:45:44.876Z,100890.83
2019-05-21T01:48:15.546Z,100894.87
2019-05-21T01:50:46.558Z,100890.93
2019-05-21T01:53:18.850Z,100888.91
2019-05-21T01:55:50.683Z,100889.14
2019-05-21T01:58:22.332Z,100886.73
2019-05-21T02:00:55.216Z,100886.51
2019-05-21T02:03:27.382Z,100889.41
2019-05-21T02:05:58.936Z,100878.69
2019-05-21T02:08:30.591Z,100879.25
2019-05-21T02:11:02.255Z,100883.39
2019-05-21T02:13:33.803Z,100876.54
2019-05-21T02:16:05.367Z,100878.73
2019-05-21T02:18:36.904Z,100879.89
2019-05-21T02:21:07.576Z,100886.66
2019-05-21T02:23:38.677Z,100886.89
2019-05-21T02:26:09.239Z,100883.80
2019-05-21T02:28:40.556Z,100887.27
2019-05-21T02:31:12.098Z,100890.72
2019-05-21T02:33:43.873Z,100893.06
2019-05-21T02:36:15.518Z,100890.23
2019-05-21T02:38:47.380Z,100885.80
2019-05-21T02:41:19.756Z,100891.16
2019-05-21T02:43:52.224Z,100888.25
2019-05-21T02:46:22.888Z,100891.00
2019-05-21T02:48:54.210Z,100897.98
2019-05-21T02:51:26.272Z,100899.89
2019-05-21T02:53:58.339Z,100898.36
2019-05-21T02:56:29.897Z,100909.09
2019-05-21T02:59:01.546Z,100903.12
2019-05-21T03:01:44.459Z,100901.86
2019-05-21T03:04:16.223Z,100908.63
2019-05-21T03:06:47.772Z,100908.19
2019-05-21T03:09:19.656Z,100905.73
2019-05-21T03:11:51.210Z,100902.79
2019-05-21T03:14:23.124Z,100902.16
2019-05-21T03:16:55.013Z,100907.48
2019-05-21T03:19:26.675Z,100905.48
2019-05-21T03:21:58.647Z,100907.56
2019-05-21T03:24:30.171Z,100909.19
2019-05-21T03:27:02.033Z,100915.86
2019-05-21T03:29:33.586Z,100910.37
2019-05-21T03:32:05.453Z,100908.66
2019-05-21T03:34:37.057Z,100909.91
2019-05-21T03:37:08.765Z,100912.26
2019-05-21T03:39:39.422Z,100911.80
2019-05-21T03:42:10.639Z,100913.62
2019-05-21T03:44:58.296Z,100910.08
2019-05-21T03:47:17.221Z,100911.29
2019-05-21T03:49:49.290Z,100918.26
2019-05-21T03:52:20.938Z,100919.67
2019-05-21T03:54:52.600Z,100919.00
2019-05-21T03:57:24.354Z,100922.92
2019-05-21T03:59:56.118Z,100925.13
2019-05-21T04:02:28.392Z,100925.64
2019-05-21T04:05:00.039Z,100928.13
2019-05-21T04:07:31.791Z,100929.29
2019-05-21T04:10:04.675Z,100933.91
2019-05-21T04:12:36.128Z,100929.30
2019-05-21T04:15:18.429Z,100931.59
2019-05-21T04:17:57.764Z,100933.81
2019-05-21T04:20:29.219Z,100938.33
2019-05-21T04:23:00.975Z,100936.19
2019-05-21T04:25:32.731Z,100938.11
2019-05-21T04:28:04.500Z,100948.22
2019-05-21T04:30:35.843Z,100944.05
2019-05-21T04:33:07.800Z,100946.55
2019-05-21T04:35:39.554Z,100948.11
2019-05-21T04:38:11.121Z,100955.98
2019-05-21T04:40:42.969Z,100958.78
2019-05-21T04:43:14.545Z,100952.12
2019-05-21T04:45:46.485Z,100947.80
2019-05-21T04:48:18.140Z,100938.65
2019-05-21T04:50:49.897Z,100934.62
2019-05-21T04:53:22.263Z,100929.84
2019-05-21T04:55:54.036Z,100927.35
2019-05-21T04:58:25.681Z,100928.32
2019-05-21T05:00:57.127Z,100925.55
2019-05-21T05:03:29.395Z,100929.87
2019-05-21T05:06:00.956Z,100931.98
2019-05-21T05:08:32.708Z,100934.41
2019-05-21T05:11:04.388Z,100934.00
2019-05-21T05:13:36.017Z,100932.09
2019-05-21T05:16:07.574Z,100930.19
2019-05-21T05:18:39.531Z,100928.56
2019-05-21T05:21:11.079Z,100933.92
2019-05-21T05:23:42.843Z,100925.86
2019-05-21T05:26:13.683Z,100919.83
2019-05-21T05:28:44.828Z,100923.95
2019-05-21T05:31:16.581Z,100933.73
2019-05-21T05:33:48.256Z,100924.70
2019-05-21T05:36:19.782Z,100922.23
2019-05-21T05:38:51.441Z,100916.64
2019-05-21T05:41:23.091Z,100914.91
2019-05-21T05:43:54.758Z,100913.16
2019-05-21T05:46:26.400Z,100915.67
2019-05-21T05:49:01.834Z,100913.52
2019-05-21T05:51:33.045Z,100920.66
2019-05-21T05:54:07.712Z,100919.31
2019-05-21T05:56:38.344Z,100915.41
2019-05-21T05:59:14.009Z,100914.46
2019-05-21T06:01:44.118Z,100905.21
2019-05-21T06:04:15.769Z,100911.05
2019-05-21T06:06:48.152Z,100906.99
2019-05-21T06:09:19.900Z,100909.13
2019-05-21T06:11:51.867Z,100917.88
2019-05-21T06:14:23.726Z,100903.22
2019-05-21T06:16:55.308Z,100904.05
2019-05-21T06:19:27.151Z,100902.91
2019-05-21T06:21:58.892Z,100909.22
2019-05-21T06:24:30.548Z,100906.77
2019-05-21T06:27:02.617Z,100912.58
2019-05-21T06:29:38.384Z,100905.62
2019-05-21T06:32:07.970Z,100908.58
2019-05-21T06:34:39.522Z,100907.67
2019-05-21T06:37:11.281Z,100899.02
2019-05-21T06:39:43.143Z,100906.86
2019-05-21T06:42:14.803Z,100910.47
2019-05-21T06:44:46.758Z,100904.67
2019-05-21T06:47:18.426Z,100904.08
2019-05-21T06:49:49.966Z,100905.28
2019-05-21T06:52:22.095Z,100905.19
2019-05-21T06:54:53.692Z,100907.87
2019-05-21T06:57:25.542Z,100906.86
2019-05-21T06:59:57.510Z,100908.88
2019-05-21T07:02:29.195Z,100911.98
2019-05-21T07:05:01.357Z,100910.88
2019-05-21T07:07:33.286Z,100909.53
2019-05-21T07:10:07.363Z,100908.78
2019-05-21T07:12:38.960Z,100904.87
2019-05-21T07:15:10.903Z,100916.35
2019-05-21T07:17:43.182Z,100912.50
2019-05-21T07:20:16.257Z,100904.33
2019-05-21T07:22:47.830Z,100903.41
2019-05-21T07:25:21.230Z,100908.20
2019-05-21T07:27:53.085Z,100906.09
2019-05-21T07:30:24.845Z,100911.83
2019-05-21T07:32:57.829Z,100908.53
2019-05-21T07:35:29.694Z,100907.82
2019-05-21T07:38:01.544Z,100899.98
2019-05-21T07:40:33.406Z,100895.09
2019-05-21T07:43:05.370Z,100890.09
2019-05-21T07:45:37.129Z,100890.23
2019-05-21T07:48:08.578Z,100889.27
2019-05-21T07:50:40.333Z,100891.03
2019-05-21T07:53:12.338Z,100893.53
2019-05-21T07:55:43.847Z,100890.03
2019-05-21T07:58:15.193Z,100891.58
2019-05-21T08:00:48.394Z,100890.67
2019-05-21T08:03:20.659Z,100891.36
2019-05-21T08:05:52.118Z,100889.37
2019-05-21T08:08:23.977Z,100886.96
2019-05-21T08:10:55.933Z,100885.29
2019-05-21T08:13:27.582Z,100887.46
2019-05-21T08:15:59.238Z,100883.25
2019-05-21T08:18:31.201Z,100889.28
2019-05-21T08:21:03.061Z,100883.34
2019-05-21T08:23:34.715Z,100887.28
2019-05-21T08:26:06.368Z,100881.08
2019-05-21T08:28:38.433Z,100880.83
2019-05-21T08:31:10.047Z,100877.02
2019-05-21T08:33:42.055Z,100873.91
2019-05-21T08:36:13.609Z,100869.61
2019-05-21T08:38:46.592Z,100867.78
2019-05-21T08:41:18.445Z,100878.03
2019-05-21T08:43:50.313Z,100871.85
2019-05-21T08:46:21.763Z,100871.37
2019-05-21T08:48:53.517Z,100873.11
2019-05-21T08:51:25.172Z,100871.40
2019-05-21T08:53:57.044Z,100865.62
2019-05-21T08:56:28.809Z,100870.46
2019-05-21T08:59:00.555Z,100861.71
2019-05-21T09:01:32.620Z,100846.22
2019-05-21T09:04:04.268Z,100844.83
2019-05-21T09:06:35.715Z,100844.69
2019-05-21T09:09:07.475Z,100855.30
2019-05-21T09:11:39.234Z,100843.98
2019-05-21T09:14:10.989Z,100846.45
2019-05-21T09:16:46.883Z,100852.11
2019-05-21T09:19:22.182Z,100844.98
2019-05-21T09:21:53.634Z,100848.16
2019-05-21T09:24:26.311Z,100842.85
2019-05-21T09:26:57.763Z,100839.80
2019-05-21T09:29:29.756Z,100839.69
2019-05-21T09:32:02.783Z,100831.30
2019-05-21T09:34:48.033Z,100837.72
2019-05-21T09:37:19.181Z,100836.25
2019-05-21T09:39:42.490Z,100833.03
2019-05-21T09:42:14.245Z,100829.59
2019-05-21T09:44:45.598Z,100832.30
2019-05-21T09:47:17.146Z,100831.60
2019-05-21T09:49:48.593Z,100831.09
2019-05-21T09:52:20.368Z,100830.59
2019-05-21T09:54:52.631Z,100826.89
2019-05-21T09:57:28.580Z,100835.52
2019-05-21T10:00:07.913Z,100830.52
2019-05-21T10:02:40.033Z,100827.47
2019-05-21T10:05:12.044Z,100835.07
2019-05-21T10:07:43.820Z,100828.70
2019-05-21T10:10:15.459Z,100829.44
2019-05-21T10:12:48.142Z,100825.09
2019-05-21T10:15:19.651Z,100822.80
2019-05-21T10:17:51.132Z,100829.34
2019-05-21T10:20:23.209Z,100825.49
2019-05-21T10:22:54.750Z,100823.27
2019-05-21T10:25:26.717Z,100820.81
2019-05-21T10:27:58.483Z,100821.44
2019-05-21T10:30:30.435Z,100818.95
2019-05-21T10:33:02.092Z,100816.56
2019-05-21T10:35:33.750Z,100816.22
2019-05-21T10:38:05.714Z,100816.09
2019-05-21T10:40:37.666Z,100819.93
2019-05-21T10:43:09.117Z,100810.92
2019-05-21T10:45:41.190Z,100816.29
2019-05-21T10:48:12.840Z,100802.19
2019-05-21T10:50:44.598Z,100797.53
2019-05-21T10:53:16.561Z,100795.19
2019-05-21T10:55:49.137Z,100800.22
2019-05-21T10:58:20.800Z,100796.87
2019-05-21T11:00:56.820Z,100794.83
2019-05-21T11:03:46.327Z,100801.83
2019-05-21T11:06:18.181Z,100800.05
2019-05-21T11:08:49.836Z,100797.11
2019-05-21T11:11:21.447Z,100800.30
2019-05-21T11:13:52.937Z,100797.23
2019-05-21T11:16:24.593Z,100796.36
2019-05-21T11:18:56.247Z,100796.61
2019-05-21T11:21:28.214Z,100788.77
2019-05-21T11:23:59.992Z,100783.34
2019-05-21T11:26:31.939Z,100792.49
2019-05-21T11:29:03.491Z,100783.39
2019-05-21T11:31:37.698Z,100781.97
2019-05-21T11:34:09.557Z,100778.56
2019-05-21T11:36:40.904Z,100772.24
2019-05-21T11:39:12.770Z,100771.89
2019-05-21T11:41:44.323Z,100773.52
2019-05-21T11:44:16.179Z,100772.87
2019-05-21T11:46:47.629Z,100752.40
2019-05-21T11:49:19.353Z,100760.97
2019-05-21T11:51:50.739Z,100751.64
2019-05-21T11:54:22.807Z,100750.87
2019-05-21T11:56:54.255Z,100748.02
2019-05-21T11:59:25.699Z,100739.81
2019-05-21T12:01:58.076Z,100744.34
2019-05-21T12:04:29.521Z,100737.94
2019-05-21T12:07:03.574Z,100747.63
2019-05-21T12:09:34.571Z,100742.75
2019-05-21T12:12:06.335Z,100744.09
2019-05-21T12:14:38.091Z,100732.34
2019-05-21T12:17:09.849Z,100724.53
2019-05-21T12:19:41.804Z,100725.34
2019-05-21T12:22:13.371Z,100717.12
2019-05-21T12:24:45.132Z,100713.78
2019-05-21T12:27:16.980Z,100707.01
2019-05-21T12:29:48.642Z,100712.78
2019-05-21T12:32:21.279Z,100715.39
2019-05-21T12:34:52.968Z,100704.53
2019-05-21T12:37:25.032Z,100709.84
2019-05-21T12:39:56.584Z,100714.47
2019-05-21T12:42:28.447Z,100717.19
2019-05-21T12:45:00.120Z,100711.75
2019-05-21T12:47:32.077Z,100705.81
2019-05-21T12:50:04.126Z,100712.79
2019-05-21T12:52:35.889Z,100709.12
2019-05-21T12:55:08.458Z,100698.00
2019-05-21T12:57:40.933Z,100694.85
2019-05-21T13:00:14.272Z,100685.95
2019-05-21T13:02:45.919Z,100686.38
2019-05-21T13:05:17.844Z,100685.76
2019-05-21T13:07:49.397Z,100678.02
2019-05-21T13:10:21.153Z,100678.02
2019-05-21T13:12:53.013Z,100671.47
2019-05-21T13:15:25.688Z,100671.98
2019-05-21T13:17:57.145Z,100670.58
2019-05-21T13:20:29.216Z,100670.25
2019-05-21T13:23:00.657Z,100665.49
2019-05-21T13:25:32.107Z,100670.66
2019-05-21T13:28:04.057Z,100656.26
2019-05-21T13:30:35.828Z,100656.77
2019-05-21T13:33:07.788Z,100648.95
2019-05-21T13:35:39.650Z,100650.30
2019-05-21T13:38:13.634Z,100645.18
2019-05-21T13:40:45.417Z,100646.56
2019-05-21T13:43:20.871Z,100637.63
2019-05-21T13:45:50.368Z,100641.63
2019-05-21T13:48:22.257Z,100637.22
2019-05-21T13:50:53.878Z,100633.29
2019-05-21T13:53:25.967Z,100638.78
2019-05-21T13:55:57.506Z,100635.28
2019-05-21T13:58:29.262Z,100639.47
2019-05-21T14:01:02.725Z,100636.22
2019-05-21T14:03:36.538Z,100637.75
2019-05-21T14:06:08.323Z,100633.78
2019-05-21T14:08:39.742Z,100631.50
2019-05-21T14:11:11.834Z,100628.02
2019-05-21T14:13:43.353Z,100629.26
2019-05-21T14:16:15.147Z,100626.54
2019-05-21T14:18:46.692Z,100616.86
2019-05-21T14:21:18.665Z,100622.35
2019-05-21T14:23:50.480Z,100623.78
2019-05-21T14:26:23.598Z,100616.01
2019-05-21T14:28:55.263Z,100615.66
2019-05-21T14:31:26.813Z,100611.95
2019-05-21T14:33:58.669Z,100614.05
2019-05-21T14:36:30.446Z,100611.32
2019-05-21T14:39:05.806Z,100612.94
2019-05-21T14:41:35.167Z,100607.61
2019-05-21T14:44:07.028Z,100611.97
2019-05-21T14:46:38.630Z,100602.52
2019-05-21T14:49:10.365Z,100608.27
2019-05-21T14:51:42.197Z,100607.22
2019-05-21T14:54:26.040Z,100601.59
2019-05-21T14:56:48.385Z,100599.16
2019-05-21T14:59:21.080Z,100602.72
2019-05-21T15:01:53.024Z,100590.91
2019-05-21T15:04:24.720Z,100596.97
2019-05-21T15:06:56.431Z,100592.36
2019-05-21T15:09:27.779Z,100590.04
2019-05-21T15:11:59.635Z,100594.92
2019-05-21T15:14:31.293Z,100590.73
2019-05-21T15:17:03.176Z,100594.20
2019-05-21T15:19:34.713Z,100595.67
2019-05-21T15:22:07.200Z,100592.31
2019-05-21T15:24:39.354Z,100591.88
2019-05-21T15:27:11.102Z,100585.28
2019-05-21T15:29:42.664Z,100582.53
2019-05-21T15:32:14.376Z,100580.50
2019-05-21T15:34:46.177Z,100577.30
2019-05-21T15:37:18.036Z,100575.83
2019-05-21T15:39:49.784Z,100576.75
2019-05-21T15:42:21.238Z,100585.84
2019-05-21T15:44:52.893Z,100580.67
2019-05-21T15:47:24.451Z,100578.67
2019-05-21T15:49:56.106Z,100587.14
2019-05-21T15:52:27.979Z,100588.45
2019-05-21T15:54:59.417Z,100587.02
2019-05-21T15:57:31.277Z,100587.17
2019-05-21T16:00:02.824Z,100587.04
2019-05-21T16:02:35.032Z,100583.71
2019-05-21T16:05:08.041Z,100587.95
2019-05-21T16:07:39.617Z,100584.70
2019-05-21T16:10:11.394Z,100585.17
2019-05-21T16:12:43.225Z,100581.85
2019-05-21T16:15:14.811Z,100583.48
2019-05-21T16:17:46.855Z,100583.75
2019-05-21T16:20:18.438Z,100590.31
2019-05-21T16:22:50.062Z,100589.17
2019-05-21T16:25:21.497Z,100598.05
2019-05-21T16:27:53.191Z,100580.59
2019-05-21T16:30:24.872Z,100584.88
2019-05-21T16:32:56.469Z,100583.15
2019-05-21T16:35:28.370Z,100587.30
2019-05-21T16:37:59.718Z,100590.31
2019-05-21T16:40:32.379Z,100592.23
2019-05-21T16:43:03.852Z,100585.64
2019-05-21T16:45:35.572Z,100591.02
2019-05-21T16:48:07.202Z,100592.93
2019-05-21T16:50:38.626Z,100584.56
2019-05-21T16:53:10.627Z,100590.03
2019-05-21T16:55:41.958Z,100591.17
2019-05-21T16:58:13.583Z,100591.26
2019-05-21T17:00:44.908Z,100589.64
2019-05-21T17:03:16.783Z,100585.27
2019-05-21T17:05:48.268Z,100593.55
2019-05-21T17:08:20.771Z,100598.47
2019-05-21T17:10:52.380Z,100600.08
2019-05-21T17:13:23.728Z,100603.19
2019-05-21T17:15:55.063Z,100602.84
2019-05-21T17:18:26.746Z,100611.62
2019-05-21T17:20:58.102Z,100602.70
2019-05-21T17:23:29.628Z,100598.95
2019-05-21T17:26:01.080Z,100603.84
2019-05-21T17:28:32.653Z,100600.72
2019-05-21T17:31:04.383Z,100595.31
2019-05-21T17:33:35.876Z,100602.11
2019-05-21T17:36:08.534Z,100599.94
2019-05-21T17:38:40.977Z,100601.88
2019-05-21T17:41:12.355Z,100607.30
2019-05-21T17:43:43.740Z,100611.13
2019-05-21T17:46:15.183Z,100610.52
2019-05-21T17:48:46.718Z,100613.11
2019-05-21T17:51:17.548Z,100618.40
2019-05-21T17:53:49.287Z,100607.50
2019-05-21T17:56:20.844Z,100613.26
2019-05-21T17:58:53.415Z,100606.77
2019-05-21T18:01:25.519Z,100613.41
2019-05-21T18:03:57.062Z,100616.83
2019-05-21T18:06:29.621Z,100618.92
2019-05-21T18:09:02.343Z,100624.58
2019-05-21T18:11:34.675Z,100619.13
2019-05-21T18:14:07.335Z,100618.89
2019-05-21T18:16:39.056Z,100611.64
2019-05-21T18:19:11.813Z,100616.19
2019-05-21T18:21:43.363Z,100620.58
2019-05-21T18:24:14.938Z,100622.54
2019-05-21T18:26:46.494Z,100620.59
2019-05-21T18:29:17.867Z,100621.33
2019-05-21T18:31:49.933Z,100621.29
2019-05-21T18:34:21.779Z,100623.25
2019-05-21T18:36:53.678Z,100620.94
2019-05-21T18:39:26.709Z,100621.03
2019-05-21T18:41:58.139Z,100623.86
2019-05-21T18:44:29.736Z,100618.06
2019-05-21T18:47:01.191Z,100621.73
2019-05-21T18:49:32.834Z,100627.33
2019-05-21T18:52:04.865Z,100631.25
2019-05-21T18:54:36.402Z,100629.29
2019-05-21T18:57:08.616Z,100630.17
2019-05-21T18:59:40.125Z,100635.69
2019-05-21T19:02:14.322Z,100625.98
2019-05-21T19:04:45.687Z,100637.11
2019-05-21T19:07:17.201Z,100628.27
2019-05-21T19:09:48.648Z,100624.30
2019-05-21T19:12:20.022Z,100627.50
2019-05-21T19:14:51.502Z,100626.97
2019-05-21T19:17:34.691Z,100620.80
2019-05-21T19:19:54.831Z,100618.60
2019-05-21T19:22:27.664Z,100620.95
2019-05-21T19:25:00.267Z,100617.44
2019-05-21T19:27:33.781Z,100616.94
2019-05-21T19:30:07.561Z,100619.81
2019-05-21T19:32:39.863Z,100613.45
2019-05-21T19:35:12.031Z,100621.27
2019-05-21T19:37:43.788Z,100622.25
2019-05-21T19:40:15.836Z,100625.86
2019-05-21T19:42:54.903Z,100621.08
2019-05-21T19:45:21.210Z,100617.81
2019-05-21T19:47:52.602Z,100616.74
2019-05-21T19:50:24.071Z,100617.28
2019-05-21T19:52:57.421Z,100613.73
2019-05-21T19:55:29.982Z,100611.80
2019-05-21T19:58:01.742Z,100609.52
2019-05-21T20:00:35.235Z,100609.80
2019-05-21T20:03:08.010Z,100614.34
2019-05-21T20:05:39.777Z,100612.02
2019-05-21T20:08:11.642Z,100608.98
2019-05-21T20:10:44.051Z,100598.41
2019-05-21T20:13:15.664Z,100601.55
2019-05-21T20:15:47.538Z,100607.33
2019-05-21T20:18:19.703Z,100597.45
2019-05-21T20:20:51.101Z,100603.05
2019-05-21T20:23:24.633Z,100600.84
2019-05-21T20:25:57.305Z,100591.96
2019-05-21T20:28:28.874Z,100591.37
2019-05-21T20:31:01.243Z,100582.64
2019-05-21T20:33:34.745Z,100585.67
2019-05-21T20:36:06.915Z,100592.16
2019-05-21T20:38:38.995Z,100590.55
2019-05-21T20:41:10.950Z,100597.13
2019-05-21T20:43:42.795Z,100591.41
2019-05-21T20:46:15.894Z,100586.77
2019-05-21T20:48:49.281Z,100593.14
2019-05-21T20:51:21.552Z,100589.95
2019-05-21T20:53:54.485Z,100592.08
2019-05-21T20:56:27.007Z,100599.44
2019-05-21T20:58:58.663Z,100594.69
2019-05-21T21:01:32.368Z,100599.09
2019-05-21T21:04:05.146Z,100599.27
2019-05-21T21:06:37.211Z,100594.83
2019-05-21T21:09:10.540Z,100591.45
2019-05-21T21:11:42.775Z,100593.42
2019-05-21T21:14:18.351Z,100589.05
2019-05-21T21:16:50.353Z,100590.98
2019-05-21T21:19:22.449Z,100579.13
2019-05-21T21:21:54.004Z,100574.29
2019-05-21T21:24:26.013Z,100573.48
2019-05-21T21:26:58.850Z,100572.70
2019-05-21T21:29:30.709Z,100574.65
2019-05-21T21:32:02.364Z,100564.72
2019-05-21T21:34:34.123Z,100566.41
2019-05-21T21:37:07.309Z,100561.77
2019-05-21T21:39:38.755Z,100564.86
2019-05-21T21:42:11.953Z,100564.45
2019-05-21T21:44:44.961Z,100558.57
2019-05-21T21:47:17.192Z,100555.44
2019-05-21T21:49:50.223Z,100563.41
2019-05-21T21:52:22.134Z,100556.58
2019-05-21T21:54:54.191Z,100554.81
2019-05-21T21:57:26.118Z,100555.23
2019-05-21T21:59:57.943Z,100551.69
2019-05-21T22:02:33.942Z,100543.91
2019-05-21T22:05:09.038Z,100542.39
2019-05-21T22:07:40.788Z,100536.33
2019-05-21T22:10:12.443Z,100533.06
2019-05-21T22:12:45.164Z,100532.58
2019-05-21T22:15:16.674Z,100530.38
2019-05-21T22:17:48.742Z,100523.80
2019-05-21T22:20:21.415Z,100522.80
2019-05-21T22:22:53.072Z,100518.75
2019-05-21T22:25:24.978Z,100517.25
2019-05-21T22:27:56.691Z,100512.93
2019-05-21T22:30:29.680Z,100521.63
2019-05-21T22:33:02.666Z,100506.64
2019-05-21T22:35:34.445Z,100500.92
2019-05-21T22:38:05.869Z,100505.23
2019-05-21T22:40:37.733Z,100498.91
2019-05-21T22:43:09.542Z,100493.26
2019-05-21T22:45:41.202Z,100496.64
2019-05-21T22:48:12.697Z,100499.09
2019-05-21T22:50:44.456Z,100488.49
2019-05-21T22:53:16.519Z,100483.97
2019-05-21T22:55:48.069Z,100489.58
2019-05-21T22:58:19.822Z,100490.33
2019-05-21T23:00:53.123Z,100484.56
2019-05-21T23:03:25.160Z,100483.76
2019-05-21T23:05:57.057Z,100484.25
2019-05-21T23:08:28.599Z,100485.20
2019-05-21T23:11:00.457Z,100483.22
2019-05-21T23:13:32.006Z,100484.56
2019-05-21T23:16:04.178Z,100490.98
2019-05-21T23:18:56.487Z,100486.23
2019-05-21T23:21:31.653Z,100494.63
2019-05-21T23:24:05.943Z,100493.45
2019-05-21T23:26:37.423Z,100492.20
2019-05-21T23:29:08.969Z,100488.70
2019-05-21T23:31:40.523Z,100490.36
2019-05-21T23:34:13.845Z,100483.91
2019-05-21T23:36:47.722Z,100484.53
2019-05-21T23:39:21.733Z,100480.72
2019-05-21T23:41:53.596Z,100485.91
2019-05-21T23:44:25.546Z,100480.47
2019-05-21T23:46:57.009Z,100485.05
2019-05-21T23:49:28.762Z,100484.60
2019-05-21T23:52:00.521Z,100479.12
2019-05-21T23:54:32.673Z,100472.66
2019-05-21T23:57:05.558Z,100475.22
2019-05-21T23:59:36.922Z,100474.14
